sensor_id;sensor_type;location;lat;lon;timestamp;temperature;humidity
13186;DHT22;6658;53.080;7.428;2022-10-24T00:01:32;15.40;99.90
13186;DHT22;6658;53.080;7.428;2022-10-24T00:03:57;15.40;99.90
13186;DHT22;6658;53.080;7.428;2022-10-24T00:06:23;15.50;99.90
13186;DHT22;6658;53.080;7.428;2022-10-24T00:08:49;15.50;99.90
13186;DHT22;6658;53.080;7.428;2022-10-24T00:11:21;15.50;99.90
13186;DHT22;6658;53.080;7.428;2022-10-24T00:13:51;15.60;99.90
13186;DHT22;6658;53.080;7.428;2022-10-24T00:16:17;15.60;99.90
13186;DHT22;6658;53.080;7.428;2022-10-24T00:18:43;15.60;99.90
13186;DHT22;6658;53.080;7.428;2022-10-24T00:21:09;15.60;99.90
13186;DHT22;6658;53.080;7.428;2022-10-24T00:23:35;15.70;99.90
13186;DHT22;6658;53.080;7.428;2022-10-24T00:26:02;15.70;99.90
13186;DHT22;6658;53.080;7.428;2022-10-24T00:28:30;15.70;99.90
13186;DHT22;6658;53.080;7.428;2022-10-24T00:30:56;15.70;99.90
13186;DHT22;6658;53.080;7.428;2022-10-24T00:33:22;15.80;99.90
13186;DHT22;6658;53.080;7.428;2022-10-24T00:35:47;15.80;99.90
13186;DHT22;6658;53.080;7.428;2022-10-24T00:38:13;15.80;99.90
13186;DHT22;6658;53.080;7.428;2022-10-24T00:40:39;15.80;99.90
13186;DHT22;6658;53.080;7.428;2022-10-24T00:43:16;15.80;99.90
13186;DHT22;6658;53.080;7.428;2022-10-24T00:48:37;15.80;99.90
13186;DHT22;6658;53.080;7.428;2022-10-24T00:53:51;15.70;99.90
13186;DHT22;6658;53.080;7.428;2022-10-24T00:56:20;15.50;99.90
13186;DHT22;6658;53.080;7.428;2022-10-24T00:58:48;15.50;99.90
13186;DHT22;6658;53.080;7.428;2022-10-24T01:01:15;15.40;99.90
13186;DHT22;6658;53.080;7.428;2022-10-24T01:03:41;15.40;99.90
13186;DHT22;6658;53.080;7.428;2022-10-24T01:09:37;15.20;99.90
13186;DHT22;6658;53.080;7.428;2022-10-24T01:15:06;15.10;99.90
13186;DHT22;6658;53.080;7.428;2022-10-24T01:17:44;15.00;99.90
13186;DHT22;6658;53.080;7.428;2022-10-24T01:22:48;14.90;99.90
13186;DHT22;6658;53.080;7.428;2022-10-24T01:28:22;14.90;99.90
13186;DHT22;6658;53.080;7.428;2022-10-24T01:30:59;14.90;99.90
13186;DHT22;6658;53.080;7.428;2022-10-24T01:33:29;14.90;99.90
13186;DHT22;6658;53.080;7.428;2022-10-24T01:36:07;14.80;99.90
13186;DHT22;6658;53.080;7.428;2022-10-24T01:38:58;14.80;99.90
13186;DHT22;6658;53.080;7.428;2022-10-24T01:41:27;14.90;99.90
13186;DHT22;6658;53.080;7.428;2022-10-24T01:44:04;15.00;99.90
13186;DHT22;6658;53.080;7.428;2022-10-24T01:46:39;15.00;99.90
13186;DHT22;6658;53.080;7.428;2022-10-24T01:49:15;15.10;99.90
13186;DHT22;6658;53.080;7.428;2022-10-24T01:51:48;15.20;99.90
13186;DHT22;6658;53.080;7.428;2022-10-24T01:54:15;15.30;99.90
13186;DHT22;6658;53.080;7.428;2022-10-24T01:56:41;15.40;99.90
13186;DHT22;6658;53.080;7.428;2022-10-24T02:02:03;15.50;99.90
13186;DHT22;6658;53.080;7.428;2022-10-24T02:04:31;15.60;99.90
13186;DHT22;6658;53.080;7.428;2022-10-24T02:07:05;15.60;99.90
13186;DHT22;6658;53.080;7.428;2022-10-24T02:09:34;15.70;99.90
13186;DHT22;6658;53.080;7.428;2022-10-24T02:12:01;15.70;99.90
13186;DHT22;6658;53.080;7.428;2022-10-24T02:14:57;15.70;99.90
13186;DHT22;6658;53.080;7.428;2022-10-24T02:17:24;15.80;99.90
13186;DHT22;6658;53.080;7.428;2022-10-24T02:19:50;15.80;99.90
13186;DHT22;6658;53.080;7.428;2022-10-24T02:22:29;15.80;99.90
13186;DHT22;6658;53.080;7.428;2022-10-24T02:25:12;15.80;99.90
13186;DHT22;6658;53.080;7.428;2022-10-24T02:27:52;15.70;99.90
13186;DHT22;6658;53.080;7.428;2022-10-24T02:30:22;15.60;99.90
13186;DHT22;6658;53.080;7.428;2022-10-24T02:32:51;15.60;99.90
13186;DHT22;6658;53.080;7.428;2022-10-24T02:35:23;15.50;99.90
13186;DHT22;6658;53.080;7.428;2022-10-24T02:37:53;15.50;99.90
13186;DHT22;6658;53.080;7.428;2022-10-24T02:40:21;15.50;99.90
13186;DHT22;6658;53.080;7.428;2022-10-24T02:42:50;15.60;99.90
13186;DHT22;6658;53.080;7.428;2022-10-24T02:45:18;15.60;99.90
13186;DHT22;6658;53.080;7.428;2022-10-24T02:47:46;15.60;99.90
13186;DHT22;6658;53.080;7.428;2022-10-24T02:50:13;15.60;99.90
13186;DHT22;6658;53.080;7.428;2022-10-24T02:52:40;15.70;99.90
13186;DHT22;6658;53.080;7.428;2022-10-24T02:55:06;15.60;99.90
13186;DHT22;6658;53.080;7.428;2022-10-24T02:57:32;15.60;99.90
13186;DHT22;6658;53.080;7.428;2022-10-24T02:59:58;15.60;99.90
13186;DHT22;6658;53.080;7.428;2022-10-24T03:02:24;15.60;99.90
13186;DHT22;6658;53.080;7.428;2022-10-24T03:04:49;15.60;99.90
13186;DHT22;6658;53.080;7.428;2022-10-24T03:07:15;15.50;99.90
13186;DHT22;6658;53.080;7.428;2022-10-24T03:09:41;15.50;99.90
13186;DHT22;6658;53.080;7.428;2022-10-24T03:12:07;15.40;99.90
13186;DHT22;6658;53.080;7.428;2022-10-24T03:14:34;15.20;99.90
13186;DHT22;6658;53.080;7.428;2022-10-24T03:16:59;15.20;99.90
13186;DHT22;6658;53.080;7.428;2022-10-24T03:19:25;15.10;99.90
13186;DHT22;6658;53.080;7.428;2022-10-24T03:21:53;15.10;99.90
13186;DHT22;6658;53.080;7.428;2022-10-24T03:24:19;15.00;99.90
13186;DHT22;6658;53.080;7.428;2022-10-24T03:26:44;15.00;99.90
13186;DHT22;6658;53.080;7.428;2022-10-24T03:29:10;14.90;99.90
13186;DHT22;6658;53.080;7.428;2022-10-24T03:31:39;15.00;99.90
13186;DHT22;6658;53.080;7.428;2022-10-24T03:34:08;15.00;99.90
13186;DHT22;6658;53.080;7.428;2022-10-24T03:36:33;15.00;99.90
13186;DHT22;6658;53.080;7.428;2022-10-24T03:38:59;15.00;99.90
13186;DHT22;6658;53.080;7.428;2022-10-24T03:41:25;15.00;99.90
13186;DHT22;6658;53.080;7.428;2022-10-24T03:43:51;15.00;99.90
13186;DHT22;6658;53.080;7.428;2022-10-24T03:46:17;15.10;99.90
13186;DHT22;6658;53.080;7.428;2022-10-24T03:48:42;15.10;99.90
13186;DHT22;6658;53.080;7.428;2022-10-24T03:51:08;15.30;99.90
13186;DHT22;6658;53.080;7.428;2022-10-24T03:53:35;15.30;99.90
13186;DHT22;6658;53.080;7.428;2022-10-24T03:56:00;15.30;99.90
13186;DHT22;6658;53.080;7.428;2022-10-24T03:58:26;15.40;99.90
13186;DHT22;6658;53.080;7.428;2022-10-24T04:00:52;15.40;99.90
13186;DHT22;6658;53.080;7.428;2022-10-24T04:03:19;15.40;99.90
13186;DHT22;6658;53.080;7.428;2022-10-24T04:05:45;15.50;99.90
13186;DHT22;6658;53.080;7.428;2022-10-24T04:08:11;15.60;99.90
13186;DHT22;6658;53.080;7.428;2022-10-24T04:10:37;15.60;99.90
13186;DHT22;6658;53.080;7.428;2022-10-24T04:13:03;15.70;99.90
13186;DHT22;6658;53.080;7.428;2022-10-24T04:15:28;15.70;99.90
13186;DHT22;6658;53.080;7.428;2022-10-24T04:17:55;15.80;99.90
13186;DHT22;6658;53.080;7.428;2022-10-24T04:20:21;15.80;99.90
13186;DHT22;6658;53.080;7.428;2022-10-24T04:22:48;15.80;99.90
13186;DHT22;6658;53.080;7.428;2022-10-24T04:25:14;15.80;99.90
13186;DHT22;6658;53.080;7.428;2022-10-24T04:27:40;15.80;99.90
13186;DHT22;6658;53.080;7.428;2022-10-24T04:30:13;15.80;99.90
13186;DHT22;6658;53.080;7.428;2022-10-24T04:32:40;15.70;99.90
13186;DHT22;6658;53.080;7.428;2022-10-24T04:35:06;15.70;99.90
13186;DHT22;6658;53.080;7.428;2022-10-24T04:37:32;15.60;99.90
13186;DHT22;6658;53.080;7.428;2022-10-24T04:39:58;15.50;99.90
13186;DHT22;6658;53.080;7.428;2022-10-24T04:42:24;15.50;99.90
13186;DHT22;6658;53.080;7.428;2022-10-24T04:44:50;15.60;99.90
13186;DHT22;6658;53.080;7.428;2022-10-24T04:47:16;15.60;99.90
13186;DHT22;6658;53.080;7.428;2022-10-24T04:49:42;15.50;99.90
13186;DHT22;6658;53.080;7.428;2022-10-24T04:52:08;15.50;99.90
13186;DHT22;6658;53.080;7.428;2022-10-24T04:54:34;15.40;99.90
13186;DHT22;6658;53.080;7.428;2022-10-24T04:56:59;15.30;99.90
13186;DHT22;6658;53.080;7.428;2022-10-24T04:59:25;15.20;99.90
13186;DHT22;6658;53.080;7.428;2022-10-24T05:01:51;15.20;99.90
13186;DHT22;6658;53.080;7.428;2022-10-24T05:04:18;15.20;99.90
13186;DHT22;6658;53.080;7.428;2022-10-24T05:06:44;15.10;99.90
13186;DHT22;6658;53.080;7.428;2022-10-24T05:09:11;15.10;99.90
13186;DHT22;6658;53.080;7.428;2022-10-24T05:11:36;15.10;99.90
13186;DHT22;6658;53.080;7.428;2022-10-24T05:14:02;15.10;99.90
13186;DHT22;6658;53.080;7.428;2022-10-24T05:16:28;15.00;99.90
13186;DHT22;6658;53.080;7.428;2022-10-24T05:18:53;15.00;99.90
13186;DHT22;6658;53.080;7.428;2022-10-24T05:21:19;15.00;99.90
13186;DHT22;6658;53.080;7.428;2022-10-24T05:23:45;15.00;99.90
13186;DHT22;6658;53.080;7.428;2022-10-24T05:26:11;14.90;99.90
13186;DHT22;6658;53.080;7.428;2022-10-24T05:28:36;14.90;99.90
13186;DHT22;6658;53.080;7.428;2022-10-24T05:31:02;14.90;99.90
13186;DHT22;6658;53.080;7.428;2022-10-24T05:33:28;14.80;99.90
13186;DHT22;6658;53.080;7.428;2022-10-24T05:35:53;14.80;99.90
13186;DHT22;6658;53.080;7.428;2022-10-24T05:38:19;14.80;99.90
13186;DHT22;6658;53.080;7.428;2022-10-24T05:40:45;14.80;99.90
13186;DHT22;6658;53.080;7.428;2022-10-24T05:43:16;14.80;99.90
13186;DHT22;6658;53.080;7.428;2022-10-24T05:45:42;14.80;99.90
13186;DHT22;6658;53.080;7.428;2022-10-24T05:48:08;14.80;99.90
13186;DHT22;6658;53.080;7.428;2022-10-24T05:50:34;14.70;99.90
13186;DHT22;6658;53.080;7.428;2022-10-24T05:53:05;14.70;99.90
13186;DHT22;6658;53.080;7.428;2022-10-24T05:55:34;14.70;99.90
13186;DHT22;6658;53.080;7.428;2022-10-24T05:58:00;14.60;99.90
13186;DHT22;6658;53.080;7.428;2022-10-24T06:00:29;14.50;99.90
13186;DHT22;6658;53.080;7.428;2022-10-24T06:02:59;14.50;99.90
13186;DHT22;6658;53.080;7.428;2022-10-24T06:05:25;14.50;99.90
13186;DHT22;6658;53.080;7.428;2022-10-24T06:07:54;14.50;99.90
13186;DHT22;6658;53.080;7.428;2022-10-24T06:10:20;14.40;99.90
13186;DHT22;6658;53.080;7.428;2022-10-24T06:12:49;14.50;99.90
13186;DHT22;6658;53.080;7.428;2022-10-24T06:15:16;14.40;99.90
13186;DHT22;6658;53.080;7.428;2022-10-24T06:17:41;14.40;99.90
13186;DHT22;6658;53.080;7.428;2022-10-24T06:20:08;14.50;99.90
13186;DHT22;6658;53.080;7.428;2022-10-24T06:22:36;14.50;99.90
13186;DHT22;6658;53.080;7.428;2022-10-24T06:25:03;14.60;99.90
13186;DHT22;6658;53.080;7.428;2022-10-24T06:27:29;14.60;99.90
13186;DHT22;6658;53.080;7.428;2022-10-24T06:29:54;14.60;99.90
13186;DHT22;6658;53.080;7.428;2022-10-24T06:32:23;14.70;99.90
13186;DHT22;6658;53.080;7.428;2022-10-24T06:34:49;14.70;99.90
13186;DHT22;6658;53.080;7.428;2022-10-24T06:37:15;14.80;99.90
13186;DHT22;6658;53.080;7.428;2022-10-24T06:39:44;14.80;99.90
13186;DHT22;6658;53.080;7.428;2022-10-24T06:42:09;14.90;99.90
13186;DHT22;6658;53.080;7.428;2022-10-24T06:44:35;14.90;99.90
13186;DHT22;6658;53.080;7.428;2022-10-24T06:47:03;15.00;99.90
13186;DHT22;6658;53.080;7.428;2022-10-24T06:49:28;15.00;99.90
13186;DHT22;6658;53.080;7.428;2022-10-24T06:51:55;15.00;99.90
13186;DHT22;6658;53.080;7.428;2022-10-24T06:54:20;15.10;99.90
13186;DHT22;6658;53.080;7.428;2022-10-24T06:56:46;15.10;99.90
13186;DHT22;6658;53.080;7.428;2022-10-24T06:59:14;15.10;99.90
13186;DHT22;6658;53.080;7.428;2022-10-24T07:01:40;15.20;99.90
13186;DHT22;6658;53.080;7.428;2022-10-24T07:04:06;15.30;99.90
13186;DHT22;6658;53.080;7.428;2022-10-24T07:06:32;15.40;99.90
13186;DHT22;6658;53.080;7.428;2022-10-24T07:09:00;15.50;99.90
13186;DHT22;6658;53.080;7.428;2022-10-24T07:11:26;15.60;99.90
13186;DHT22;6658;53.080;7.428;2022-10-24T07:13:53;15.70;99.90
13186;DHT22;6658;53.080;7.428;2022-10-24T07:16:22;15.80;99.90
13186;DHT22;6658;53.080;7.428;2022-10-24T07:18:49;15.90;99.90
13186;DHT22;6658;53.080;7.428;2022-10-24T07:21:18;16.00;99.90
13186;DHT22;6658;53.080;7.428;2022-10-24T07:23:44;16.10;99.90
13186;DHT22;6658;53.080;7.428;2022-10-24T07:26:12;16.10;99.90
13186;DHT22;6658;53.080;7.428;2022-10-24T07:28:40;16.10;99.90
13186;DHT22;6658;53.080;7.428;2022-10-24T07:31:07;16.00;99.90
13186;DHT22;6658;53.080;7.428;2022-10-24T07:33:36;16.00;99.90
13186;DHT22;6658;53.080;7.428;2022-10-24T07:36:02;15.90;99.90
13186;DHT22;6658;53.080;7.428;2022-10-24T07:38:28;15.90;99.90
13186;DHT22;6658;53.080;7.428;2022-10-24T07:40:54;16.00;99.90
13186;DHT22;6658;53.080;7.428;2022-10-24T07:43:20;16.00;99.90
13186;DHT22;6658;53.080;7.428;2022-10-24T07:45:46;16.00;99.90
13186;DHT22;6658;53.080;7.428;2022-10-24T07:48:12;16.00;99.90
13186;DHT22;6658;53.080;7.428;2022-10-24T07:50:42;16.10;99.90
13186;DHT22;6658;53.080;7.428;2022-10-24T07:53:09;16.10;99.90
13186;DHT22;6658;53.080;7.428;2022-10-24T07:55:39;16.20;99.90
13186;DHT22;6658;53.080;7.428;2022-10-24T07:58:05;16.30;99.90
13186;DHT22;6658;53.080;7.428;2022-10-24T08:00:31;16.30;99.90
13186;DHT22;6658;53.080;7.428;2022-10-24T08:02:56;16.30;99.90
13186;DHT22;6658;53.080;7.428;2022-10-24T08:05:26;16.30;99.90
13186;DHT22;6658;53.080;7.428;2022-10-24T08:07:52;16.30;99.90
13186;DHT22;6658;53.080;7.428;2022-10-24T08:10:18;16.30;99.90
13186;DHT22;6658;53.080;7.428;2022-10-24T08:12:43;16.40;99.90
13186;DHT22;6658;53.080;7.428;2022-10-24T08:15:09;16.40;99.90
13186;DHT22;6658;53.080;7.428;2022-10-24T08:17:35;16.40;99.90
13186;DHT22;6658;53.080;7.428;2022-10-24T08:20:05;16.40;99.90
13186;DHT22;6658;53.080;7.428;2022-10-24T08:22:32;16.50;99.90
13186;DHT22;6658;53.080;7.428;2022-10-24T08:25:01;16.50;99.90
13186;DHT22;6658;53.080;7.428;2022-10-24T08:27:26;16.50;99.90
13186;DHT22;6658;53.080;7.428;2022-10-24T08:29:52;16.60;99.90
13186;DHT22;6658;53.080;7.428;2022-10-24T08:32:21;16.60;99.90
13186;DHT22;6658;53.080;7.428;2022-10-24T08:34:50;16.70;99.90
13186;DHT22;6658;53.080;7.428;2022-10-24T08:37:15;16.90;99.90
13186;DHT22;6658;53.080;7.428;2022-10-24T08:39:41;17.00;99.90
13186;DHT22;6658;53.080;7.428;2022-10-24T08:42:12;17.20;99.90
13186;DHT22;6658;53.080;7.428;2022-10-24T08:44:41;17.30;99.90
13186;DHT22;6658;53.080;7.428;2022-10-24T08:47:43;17.40;99.90
13186;DHT22;6658;53.080;7.428;2022-10-24T08:53:21;17.40;99.90
13186;DHT22;6658;53.080;7.428;2022-10-24T08:55:54;17.40;99.90
13186;DHT22;6658;53.080;7.428;2022-10-24T09:00:50;17.50;99.90
13186;DHT22;6658;53.080;7.428;2022-10-24T09:03:33;17.70;99.90
13186;DHT22;6658;53.080;7.428;2022-10-24T09:06:06;17.90;99.90
13186;DHT22;6658;53.080;7.428;2022-10-24T09:08:59;18.10;99.90
13186;DHT22;6658;53.080;7.428;2022-10-24T09:11:29;18.10;99.90
13186;DHT22;6658;53.080;7.428;2022-10-24T09:13:57;18.20;99.90
13186;DHT22;6658;53.080;7.428;2022-10-24T09:16:25;18.30;99.90
13186;DHT22;6658;53.080;7.428;2022-10-24T09:18:54;18.30;99.90
13186;DHT22;6658;53.080;7.428;2022-10-24T09:21:23;18.40;99.90
13186;DHT22;6658;53.080;7.428;2022-10-24T09:23:53;18.50;99.90
13186;DHT22;6658;53.080;7.428;2022-10-24T09:26:26;18.60;99.90
13186;DHT22;6658;53.080;7.428;2022-10-24T09:28:53;18.60;99.90
13186;DHT22;6658;53.080;7.428;2022-10-24T09:31:23;18.70;99.90
13186;DHT22;6658;53.080;7.428;2022-10-24T09:33:50;18.70;99.90
13186;DHT22;6658;53.080;7.428;2022-10-24T09:36:19;18.50;99.90
13186;DHT22;6658;53.080;7.428;2022-10-24T09:38:49;18.40;99.90
13186;DHT22;6658;53.080;7.428;2022-10-24T09:41:23;18.40;99.90
13186;DHT22;6658;53.080;7.428;2022-10-24T09:43:59;18.50;99.90
13186;DHT22;6658;53.080;7.428;2022-10-24T09:46:38;18.50;99.90
13186;DHT22;6658;53.080;7.428;2022-10-24T09:52:01;18.50;99.90
13186;DHT22;6658;53.080;7.428;2022-10-24T09:54:32;18.50;99.90
13186;DHT22;6658;53.080;7.428;2022-10-24T09:57:10;18.60;99.90
13186;DHT22;6658;53.080;7.428;2022-10-24T09:59:47;18.70;99.90
13186;DHT22;6658;53.080;7.428;2022-10-24T10:04:39;18.80;99.90
13186;DHT22;6658;53.080;7.428;2022-10-24T10:12:58;18.80;99.90
13186;DHT22;6658;53.080;7.428;2022-10-24T10:15:31;18.90;99.90
13186;DHT22;6658;53.080;7.428;2022-10-24T10:18:02;18.90;99.90
13186;DHT22;6658;53.080;7.428;2022-10-24T10:20:40;18.80;99.90
13186;DHT22;6658;53.080;7.428;2022-10-24T10:23:29;18.80;99.90
13186;DHT22;6658;53.080;7.428;2022-10-24T10:26:15;18.90;99.90
13186;DHT22;6658;53.080;7.428;2022-10-24T10:31:18;18.90;99.90
13186;DHT22;6658;53.080;7.428;2022-10-24T10:34:10;18.90;99.90
13186;DHT22;6658;53.080;7.428;2022-10-24T10:36:53;18.70;99.90
13186;DHT22;6658;53.080;7.428;2022-10-24T10:43:31;18.80;99.90
13186;DHT22;6658;53.080;7.428;2022-10-24T10:45:47;18.70;99.90
13186;DHT22;6658;53.080;7.428;2022-10-24T10:50:57;18.60;99.90
13186;DHT22;6658;53.080;7.428;2022-10-24T10:56:39;18.70;99.90
13186;DHT22;6658;53.080;7.428;2022-10-24T11:10:53;18.00;99.90
13186;DHT22;6658;53.080;7.428;2022-10-24T11:13:31;17.80;99.90
13186;DHT22;6658;53.080;7.428;2022-10-24T11:16:01;17.60;99.90
13186;DHT22;6658;53.080;7.428;2022-10-24T11:18:35;17.50;99.90
13186;DHT22;6658;53.080;7.428;2022-10-24T11:23:44;17.40;99.90
13186;DHT22;6658;53.080;7.428;2022-10-24T11:26:21;17.30;99.90
13186;DHT22;6658;53.080;7.428;2022-10-24T11:34:48;17.00;99.90
13186;DHT22;6658;53.080;7.428;2022-10-24T11:37:33;17.00;99.90
13186;DHT22;6658;53.080;7.428;2022-10-24T11:40:15;17.00;99.90
13186;DHT22;6658;53.080;7.428;2022-10-24T11:45:17;17.10;99.90
13186;DHT22;6658;53.080;7.428;2022-10-24T11:52:53;17.20;99.90
13186;DHT22;6658;53.080;7.428;2022-10-24T11:55:23;17.30;99.90
13186;DHT22;6658;53.080;7.428;2022-10-24T11:57:57;17.40;99.90
13186;DHT22;6658;53.080;7.428;2022-10-24T12:00:31;17.60;99.90
13186;DHT22;6658;53.080;7.428;2022-10-24T12:08:38;17.80;99.90
13186;DHT22;6658;53.080;7.428;2022-10-24T12:19:28;18.30;99.90
13186;DHT22;6658;53.080;7.428;2022-10-24T12:21:56;18.30;99.90
13186;DHT22;6658;53.080;7.428;2022-10-24T12:24:30;18.30;99.90
13186;DHT22;6658;53.080;7.428;2022-10-24T12:27:01;18.20;99.90
13186;DHT22;6658;53.080;7.428;2022-10-24T12:29:33;18.10;99.90
13186;DHT22;6658;53.080;7.428;2022-10-24T12:32:23;18.00;99.90
13186;DHT22;6658;53.080;7.428;2022-10-24T12:34:58;18.00;99.90
13186;DHT22;6658;53.080;7.428;2022-10-24T12:39:52;17.90;99.90
13186;DHT22;6658;53.080;7.428;2022-10-24T12:45:21;18.20;99.90
13186;DHT22;6658;53.080;7.428;2022-10-24T12:47:39;18.40;99.90
13186;DHT22;6658;53.080;7.428;2022-10-24T12:53:13;18.60;99.90
13186;DHT22;6658;53.080;7.428;2022-10-24T12:58:34;18.60;99.90
13186;DHT22;6658;53.080;7.428;2022-10-24T13:01:35;18.60;99.90
13186;DHT22;6658;53.080;7.428;2022-10-24T13:04:22;18.50;99.90
13186;DHT22;6658;53.080;7.428;2022-10-24T13:15:37;18.10;99.90
13186;DHT22;6658;53.080;7.428;2022-10-24T13:21:07;17.90;99.90
13186;DHT22;6658;53.080;7.428;2022-10-24T13:23:37;17.80;99.90
13186;DHT22;6658;53.080;7.428;2022-10-24T13:26:04;17.80;99.90
13186;DHT22;6658;53.080;7.428;2022-10-24T13:28:36;17.70;99.90
13186;DHT22;6658;53.080;7.428;2022-10-24T13:38:50;17.80;99.90
13186;DHT22;6658;53.080;7.428;2022-10-24T13:52:37;17.80;99.90
13186;DHT22;6658;53.080;7.428;2022-10-24T13:58:07;17.80;99.90
13186;DHT22;6658;53.080;7.428;2022-10-24T14:00:40;17.70;99.90
13186;DHT22;6658;53.080;7.428;2022-10-24T14:03:28;17.70;99.90
13186;DHT22;6658;53.080;7.428;2022-10-24T14:05:56;17.60;99.90
13186;DHT22;6658;53.080;7.428;2022-10-24T14:10:59;17.50;99.90
13186;DHT22;6658;53.080;7.428;2022-10-24T14:13:28;17.50;99.90
13186;DHT22;6658;53.080;7.428;2022-10-24T14:16:01;17.50;99.90
13186;DHT22;6658;53.080;7.428;2022-10-24T14:18:33;17.50;99.90
13186;DHT22;6658;53.080;7.428;2022-10-24T14:21:03;17.40;99.90
13186;DHT22;6658;53.080;7.428;2022-10-24T14:23:36;17.40;99.90
13186;DHT22;6658;53.080;7.428;2022-10-24T14:28:37;17.50;99.90
13186;DHT22;6658;53.080;7.428;2022-10-24T14:31:08;17.30;99.90
13186;DHT22;6658;53.080;7.428;2022-10-24T14:33:47;17.20;99.90
13186;DHT22;6658;53.080;7.428;2022-10-24T14:36:19;17.10;99.90
13186;DHT22;6658;53.080;7.428;2022-10-24T14:38:49;17.00;99.90
13186;DHT22;6658;53.080;7.428;2022-10-24T14:41:21;16.80;99.90
13186;DHT22;6658;53.080;7.428;2022-10-24T14:43:56;16.60;99.90
13186;DHT22;6658;53.080;7.428;2022-10-24T14:46:33;16.50;99.90
13186;DHT22;6658;53.080;7.428;2022-10-24T14:51:50;16.30;99.90
13186;DHT22;6658;53.080;7.428;2022-10-24T14:54:22;16.30;99.90
13186;DHT22;6658;53.080;7.428;2022-10-24T14:56:59;16.30;99.90
13186;DHT22;6658;53.080;7.428;2022-10-24T14:59:29;16.20;99.90
13186;DHT22;6658;53.080;7.428;2022-10-24T15:02:13;16.20;99.90
13186;DHT22;6658;53.080;7.428;2022-10-24T15:04:46;16.20;99.90
13186;DHT22;6658;53.080;7.428;2022-10-24T15:09:57;16.10;99.90
13186;DHT22;6658;53.080;7.428;2022-10-24T15:12:58;16.10;99.90
13186;DHT22;6658;53.080;7.428;2022-10-24T15:15:32;16.20;99.90
13186;DHT22;6658;53.080;7.428;2022-10-24T15:18:15;16.20;99.90
13186;DHT22;6658;53.080;7.428;2022-10-24T15:20:46;16.10;99.90
13186;DHT22;6658;53.080;7.428;2022-10-24T15:23:25;16.10;99.90
13186;DHT22;6658;53.080;7.428;2022-10-24T15:26:07;16.00;99.90
13186;DHT22;6658;53.080;7.428;2022-10-24T15:28:37;15.90;99.90
13186;DHT22;6658;53.080;7.428;2022-10-24T15:31:03;15.90;99.90
13186;DHT22;6658;53.080;7.428;2022-10-24T15:33:33;15.80;99.90
13186;DHT22;6658;53.080;7.428;2022-10-24T15:35:59;15.80;99.90
13186;DHT22;6658;53.080;7.428;2022-10-24T15:38:24;15.70;99.90
13186;DHT22;6658;53.080;7.428;2022-10-24T15:40:50;15.60;99.90
13186;DHT22;6658;53.080;7.428;2022-10-24T15:43:18;15.50;99.90
13186;DHT22;6658;53.080;7.428;2022-10-24T15:45:47;15.50;99.90
13186;DHT22;6658;53.080;7.428;2022-10-24T15:48:19;15.50;99.90
13186;DHT22;6658;53.080;7.428;2022-10-24T15:50:45;15.40;99.90
13186;DHT22;6658;53.080;7.428;2022-10-24T15:53:23;15.30;99.90
13186;DHT22;6658;53.080;7.428;2022-10-24T15:55:51;15.30;99.90
13186;DHT22;6658;53.080;7.428;2022-10-24T15:58:20;15.20;99.90
13186;DHT22;6658;53.080;7.428;2022-10-24T16:00:46;15.10;99.90
13186;DHT22;6658;53.080;7.428;2022-10-24T16:03:15;15.00;99.90
13186;DHT22;6658;53.080;7.428;2022-10-24T16:05:45;15.00;99.90
13186;DHT22;6658;53.080;7.428;2022-10-24T16:08:13;14.90;99.90
13186;DHT22;6658;53.080;7.428;2022-10-24T16:10:43;14.90;99.90
13186;DHT22;6658;53.080;7.428;2022-10-24T16:13:12;14.80;99.90
13186;DHT22;6658;53.080;7.428;2022-10-24T16:15:39;14.80;99.90
13186;DHT22;6658;53.080;7.428;2022-10-24T16:18:05;14.70;99.90
13186;DHT22;6658;53.080;7.428;2022-10-24T16:20:34;14.70;99.90
13186;DHT22;6658;53.080;7.428;2022-10-24T16:23:01;14.60;99.90
13186;DHT22;6658;53.080;7.428;2022-10-24T16:25:29;14.60;99.90
13186;DHT22;6658;53.080;7.428;2022-10-24T16:27:56;14.50;99.90
13186;DHT22;6658;53.080;7.428;2022-10-24T16:30:24;14.50;99.90
13186;DHT22;6658;53.080;7.428;2022-10-24T16:32:51;14.50;99.90
13186;DHT22;6658;53.080;7.428;2022-10-24T16:35:26;14.50;99.90
13186;DHT22;6658;53.080;7.428;2022-10-24T16:37:53;14.40;99.90
13186;DHT22;6658;53.080;7.428;2022-10-24T16:40:20;14.30;99.90
13186;DHT22;6658;53.080;7.428;2022-10-24T16:42:50;14.30;99.90
13186;DHT22;6658;53.080;7.428;2022-10-24T16:45:19;14.30;99.90
13186;DHT22;6658;53.080;7.428;2022-10-24T16:47:45;14.30;99.90
13186;DHT22;6658;53.080;7.428;2022-10-24T16:50:28;14.20;99.90
13186;DHT22;6658;53.080;7.428;2022-10-24T16:53:04;14.20;99.90
13186;DHT22;6658;53.080;7.428;2022-10-24T16:55:32;14.20;99.90
13186;DHT22;6658;53.080;7.428;2022-10-24T16:57:58;14.10;99.90
13186;DHT22;6658;53.080;7.428;2022-10-24T17:00:26;14.10;99.90
13186;DHT22;6658;53.080;7.428;2022-10-24T17:02:56;14.10;99.90
13186;DHT22;6658;53.080;7.428;2022-10-24T17:05:25;14.00;99.90
13186;DHT22;6658;53.080;7.428;2022-10-24T17:07:57;14.00;99.90
13186;DHT22;6658;53.080;7.428;2022-10-24T17:10:25;13.90;99.90
13186;DHT22;6658;53.080;7.428;2022-10-24T17:12:51;13.90;99.90
13186;DHT22;6658;53.080;7.428;2022-10-24T17:15:18;13.90;99.90
13186;DHT22;6658;53.080;7.428;2022-10-24T17:17:45;13.80;99.90
13186;DHT22;6658;53.080;7.428;2022-10-24T17:20:13;13.80;99.90
13186;DHT22;6658;53.080;7.428;2022-10-24T17:22:42;13.70;99.90
13186;DHT22;6658;53.080;7.428;2022-10-24T17:25:22;13.70;99.90
13186;DHT22;6658;53.080;7.428;2022-10-24T17:27:48;13.70;99.90
13186;DHT22;6658;53.080;7.428;2022-10-24T17:30:20;13.60;99.90
13186;DHT22;6658;53.080;7.428;2022-10-24T17:32:47;13.60;99.90
13186;DHT22;6658;53.080;7.428;2022-10-24T17:35:26;13.70;99.90
13186;DHT22;6658;53.080;7.428;2022-10-24T17:41:26;13.70;99.90
13186;DHT22;6658;53.080;7.428;2022-10-24T17:43:53;13.70;99.90
13186;DHT22;6658;53.080;7.428;2022-10-24T17:46:22;13.70;99.90
13186;DHT22;6658;53.080;7.428;2022-10-24T17:48:51;13.70;99.90
13186;DHT22;6658;53.080;7.428;2022-10-24T17:51:21;13.70;99.90
13186;DHT22;6658;53.080;7.428;2022-10-24T17:53:53;13.70;99.90
13186;DHT22;6658;53.080;7.428;2022-10-24T17:56:25;13.60;99.90
13186;DHT22;6658;53.080;7.428;2022-10-24T17:58:51;13.60;99.90
13186;DHT22;6658;53.080;7.428;2022-10-24T18:01:28;13.60;99.90
13186;DHT22;6658;53.080;7.428;2022-10-24T18:04:05;13.60;99.90
13186;DHT22;6658;53.080;7.428;2022-10-24T18:06:31;13.60;99.90
13186;DHT22;6658;53.080;7.428;2022-10-24T18:08:57;13.50;99.90
13186;DHT22;6658;53.080;7.428;2022-10-24T18:11:26;13.50;99.90
13186;DHT22;6658;53.080;7.428;2022-10-24T18:13:52;13.50;99.90
13186;DHT22;6658;53.080;7.428;2022-10-24T18:16:36;13.40;99.90
13186;DHT22;6658;53.080;7.428;2022-10-24T18:19:03;13.40;99.90
13186;DHT22;6658;53.080;7.428;2022-10-24T18:21:29;13.30;99.90
13186;DHT22;6658;53.080;7.428;2022-10-24T18:23:55;13.20;99.90
13186;DHT22;6658;53.080;7.428;2022-10-24T18:26:25;13.30;99.90
13186;DHT22;6658;53.080;7.428;2022-10-24T18:29:11;13.20;99.90
13186;DHT22;6658;53.080;7.428;2022-10-24T18:32:30;13.20;99.90